sensor_id;sensor_type;location;lat;lon;timestamp;pressure;altitude;pressure_sealevel;temperature;humidity
57799;BME280;43626;53.866;30.298;2023-02-16T00:02:01;1033.6;;;2.2;58.8
57799;BME280;43626;53.866;30.298;2023-02-16T00:06:26;1033.6;;;2.2;58.8
57799;BME280;43626;53.866;30.298;2023-02-16T00:12:07;1033.6;;;2.2;58.7
57799;BME280;43626;53.866;30.298;2023-02-16T00:17:05;1033.6;;;2.2;58.6
57799;BME280;43626;53.866;30.298;2023-02-16T00:21:52;1033.5;;;2.2;58.6
57799;BME280;43626;53.866;30.298;2023-02-16T00:26:27;1033.5;;;2.2;58.6
57799;BME280;43626;53.866;30.298;2023-02-16T00:31:52;1033.5;;;2.2;58.5
57799;BME280;43626;53.866;30.298;2023-02-16T00:36:15;1033.4;;;2.2;58.5
57799;BME280;43626;53.866;30.298;2023-02-16T00:42:09;1033.4;;;2.2;58.7
57799;BME280;43626;53.866;30.298;2023-02-16T00:46:51;1033.4;;;2.2;58.7
57799;BME280;43626;53.866;30.298;2023-02-16T00:52:07;1033.4;;;2.1;58.6
57799;BME280;43626;53.866;30.298;2023-02-16T00:57:03;1033.4;;;2.1;58.4
57799;BME280;43626;53.866;30.298;2023-02-16T01:01:53;1033.3;;;2.1;58.6
57799;BME280;43626;53.866;30.298;2023-02-16T01:06:49;1033.2;;;2.2;58.7
57799;BME280;43626;53.866;30.298;2023-02-16T01:11:15;1033.2;;;2.2;58.7
57799;BME280;43626;53.866;30.298;2023-02-16T01:16:40;1033.2;;;2.2;58.7
57799;BME280;43626;53.866;30.298;2023-02-16T01:21:15;1033.1;;;2.2;58.7
57799;BME280;43626;53.866;30.298;2023-02-16T01:26:43;1033.1;;;2.2;58.6
57799;BME280;43626;53.866;30.298;2023-02-16T01:31:15;1033;;;2.2;58.6
57799;BME280;43626;53.866;30.298;2023-02-16T01:37:03;1033;;;2.1;58.7
57799;BME280;43626;53.866;30.298;2023-02-16T01:42:39;1033;;;2.1;58.7
57799;BME280;43626;53.866;30.298;2023-02-16T01:47:04;1033;;;2.1;58.6
57799;BME280;43626;53.866;30.298;2023-02-16T01:51:26;1033;;;2.1;58.8
57799;BME280;43626;53.866;30.298;2023-02-16T01:56:55;1032.9;;;2.1;58.8
57799;BME280;43626;53.866;30.298;2023-02-16T02:01:27;1032.9;;;2.1;58.9
57799;BME280;43626;53.866;30.298;2023-02-16T02:06:53;1032.9;;;2.1;58.9
57799;BME280;43626;53.866;30.298;2023-02-16T02:11:48;1032.8;;;2.1;59
57799;BME280;43626;53.866;30.298;2023-02-16T02:16:39;1032.8;;;2.1;59.1
57799;BME280;43626;53.866;30.298;2023-02-16T02:21:24;1032.7;;;2.1;59
57799;BME280;43626;53.866;30.298;2023-02-16T02:27:15;1032.7;;;2.1;59
57799;BME280;43626;53.866;30.298;2023-02-16T02:32:03;1032.6;;;2.1;59
57799;BME280;43626;53.866;30.298;2023-02-16T02:36:44;1032.6;;;2.1;58.9
57799;BME280;43626;53.866;30.298;2023-02-16T02:41:17;1032.5;;;2.1;59
57799;BME280;43626;53.866;30.298;2023-02-16T02:46:52;1032.4;;;2.1;58.9
57799;BME280;43626;53.866;30.298;2023-02-16T02:51:51;1032.3;;;2.1;58.9
57799;BME280;43626;53.866;30.298;2023-02-16T02:56:40;1032.3;;;2.1;58.9
57799;BME280;43626;53.866;30.298;2023-02-16T03:01:42;1032.3;;;2.2;58.8
57799;BME280;43626;53.866;30.298;2023-02-16T03:07:03;1032.2;;;2.2;58.7
57799;BME280;43626;53.866;30.298;2023-02-16T03:11:42;1032.1;;;2.2;58.7
57799;BME280;43626;53.866;30.298;2023-02-16T03:16:26;1032.1;;;2.2;58.7
57799;BME280;43626;53.866;30.298;2023-02-16T03:21:43;1032;;;2.2;58.6
57799;BME280;43626;53.866;30.298;2023-02-16T03:27:05;1032;;;2.2;58.5
57799;BME280;43626;53.866;30.298;2023-02-16T03:31:16;1031.9;;;2.1;58.3
57799;BME280;43626;53.866;30.298;2023-02-16T03:36:38;1031.9;;;2.1;58
57799;BME280;43626;53.866;30.298;2023-02-16T03:41:52;1031.9;;;2.1;57.9
57799;BME280;43626;53.866;30.298;2023-02-16T03:46:37;1031.9;;;2.1;57.9
57799;BME280;43626;53.866;30.298;2023-02-16T03:51:29;1031.8;;;2.1;57.8
57799;BME280;43626;53.866;30.298;2023-02-16T03:56:39;1031.8;;;2.2;57.7
57799;BME280;43626;53.866;30.298;2023-02-16T04:01:59;1031.8;;;2.2;57.6
57799;BME280;43626;53.866;30.298;2023-02-16T04:06:16;1031.7;;;2.2;57.6
57799;BME280;43626;53.866;30.298;2023-02-16T04:11:15;1031.7;;;2.2;57.6
57799;BME280;43626;53.866;30.298;2023-02-16T04:17:05;1031.7;;;2.2;57.5
57799;BME280;43626;53.866;30.298;2023-02-16T04:22:05;1031.7;;;2.2;57.3
57799;BME280;43626;53.866;30.298;2023-02-16T04:26:43;1031.6;;;2.2;57.2
57799;BME280;43626;53.866;30.298;2023-02-16T04:31:59;1031.6;;;2.2;57
57799;BME280;43626;53.866;30.298;2023-02-16T04:37:03;1031.6;;;2.1;56.7
57799;BME280;43626;53.866;30.298;2023-02-16T04:41:15;1031.6;;;2.1;56.8
57799;BME280;43626;53.866;30.298;2023-02-16T04:46:25;1031.6;;;2.1;57
57799;BME280;43626;53.866;30.298;2023-02-16T04:51:15;1031.5;;;2.1;57
57799;BME280;43626;53.866;30.298;2023-02-16T04:56:27;1031.6;;;2.1;57.2
57799;BME280;43626;53.866;30.298;2023-02-16T05:01:40;1031.5;;;2;57.3
57799;BME280;43626;53.866;30.298;2023-02-16T05:06:39;1031.5;;;2.1;57.5
57799;BME280;43626;53.866;30.298;2023-02-16T05:12:03;1031.4;;;2.1;57.5
57799;BME280;43626;53.866;30.298;2023-02-16T05:16:51;1031.3;;;2.1;57.5
57799;BME280;43626;53.866;30.298;2023-02-16T05:21:49;1031.3;;;2;57.6
57799;BME280;43626;53.866;30.298;2023-02-16T05:26:39;1031.3;;;2;57.7
57799;BME280;43626;53.866;30.298;2023-02-16T05:31:51;1031.3;;;2;57.7
57799;BME280;43626;53.866;30.298;2023-02-16T05:36:37;1031.2;;;2.1;57.8
57799;BME280;43626;53.866;30.298;2023-02-16T05:41:37;1031.2;;;2.1;57.8
57799;BME280;43626;53.866;30.298;2023-02-16T05:46:38;1031.2;;;2.1;57.7
57799;BME280;43626;53.866;30.298;2023-02-16T05:51:51;1031.2;;;2.2;57.6
57799;BME280;43626;53.866;30.298;2023-02-16T05:57:03;1031.1;;;2.2;57.6
57799;BME280;43626;53.866;30.298;2023-02-16T06:01:47;1031.1;;;2.2;57.5
57799;BME280;43626;53.866;30.298;2023-02-16T06:07:00;1031.1;;;2.2;57.5
57799;BME280;43626;53.866;30.298;2023-02-16T06:11:37;1031.2;;;2.3;57.4
57799;BME280;43626;53.866;30.298;2023-02-16T06:16:48;1031.1;;;2.3;57.3
57799;BME280;43626;53.866;30.298;2023-02-16T06:21:15;1031.1;;;2.3;57.2
57799;BME280;43626;53.866;30.298;2023-02-16T06:26:49;1031.1;;;2.3;57
57799;BME280;43626;53.866;30.298;2023-02-16T06:31:15;1031.1;;;2.3;56.9
57799;BME280;43626;53.866;30.298;2023-02-16T06:37:01;1031.1;;;2.3;56.9
57799;BME280;43626;53.866;30.298;2023-02-16T06:41:49;1031.1;;;2.4;56.8
57799;BME280;43626;53.866;30.298;2023-02-16T06:47:01;1031;;;2.4;56.7
57799;BME280;43626;53.866;30.298;2023-02-16T06:52:01;1031;;;2.4;56.8
57799;BME280;43626;53.866;30.298;2023-02-16T06:56:49;1031;;;2.4;56.6
57799;BME280;43626;53.866;30.298;2023-02-16T07:01:49;1031;;;2.4;56.5
57799;BME280;43626;53.866;30.298;2023-02-16T07:06:24;1030.9;;;2.4;56.4
57799;BME280;43626;53.866;30.298;2023-02-16T07:11:49;1030.9;;;2.4;56.5
57799;BME280;43626;53.866;30.298;2023-02-16T07:16:15;1030.8;;;2.4;56.4
57799;BME280;43626;53.866;30.298;2023-02-16T07:21:49;1030.7;;;2.4;56.2
57799;BME280;43626;53.866;30.298;2023-02-16T07:26:27;1030.6;;;2.4;56.1
57799;BME280;43626;53.866;30.298;2023-02-16T07:32:01;1030.6;;;2.5;56
57799;BME280;43626;53.866;30.298;2023-02-16T07:36:51;1030.5;;;2.5;55.7
57799;BME280;43626;53.866;30.298;2023-02-16T07:42:01;1030.4;;;2.5;55.9
57799;BME280;43626;53.866;30.298;2023-02-16T07:47:03;1030.4;;;2.5;56.1
57799;BME280;43626;53.866;30.298;2023-02-16T07:51:27;1030.3;;;2.6;56
57799;BME280;43626;53.866;30.298;2023-02-16T07:56:49;1030.3;;;2.6;56
57799;BME280;43626;53.866;30.298;2023-02-16T08:01:28;1030.2;;;2.7;55.9
57799;BME280;43626;53.866;30.298;2023-02-16T08:06:47;1030.2;;;2.7;55.9
57799;BME280;43626;53.866;30.298;2023-02-16T08:11:37;1030.2;;;2.7;56
57799;BME280;43626;53.866;30.298;2023-02-16T08:16:26;1030.2;;;2.8;55.8
57799;BME280;43626;53.866;30.298;2023-02-16T08:21:16;1030.1;;;2.8;55.5
57799;BME280;43626;53.866;30.298;2023-02-16T08:26:50;1030.1;;;2.8;55.4
57799;BME280;43626;53.866;30.298;2023-02-16T08:31:39;1030;;;2.9;55.7
57799;BME280;43626;53.866;30.298;2023-02-16T08:36:59;1030;;;2.9;55.6
57799;BME280;43626;53.866;30.298;2023-02-16T08:41:52;1029.9;;;3;55.5
57799;BME280;43626;53.866;30.298;2023-02-16T08:46:50;1029.9;;;3.1;55.5
57799;BME280;43626;53.866;30.298;2023-02-16T08:51:36;1029.8;;;3.3;55.4
57799;BME280;43626;53.866;30.298;2023-02-16T08:56:37;1029.8;;;3.4;55.4
57799;BME280;43626;53.866;30.298;2023-02-16T09:01:46;1029.8;;;3.5;55.2
57799;BME280;43626;53.866;30.298;2023-02-16T09:06:46;1029.8;;;3.5;55.1
57799;BME280;43626;53.866;30.298;2023-02-16T09:11:38;1029.7;;;3.5;54.8
57799;BME280;43626;53.866;30.298;2023-02-16T09:16:16;1029.6;;;3.5;54.5
57799;BME280;43626;53.866;30.298;2023-02-16T09:22:01;1029.5;;;3.5;54.5
57799;BME280;43626;53.866;30.298;2023-02-16T09:26:38;1029.5;;;3.5;54.5
57799;BME280;43626;53.866;30.298;2023-02-16T09:31:45;1029.4;;;3.5;54.5
57799;BME280;43626;53.866;30.298;2023-02-16T09:36:50;1029.4;;;3.5;54.6
57799;BME280;43626;53.866;30.298;2023-02-16T09:41:31;1029.3;;;3.4;54.9
57799;BME280;43626;53.866;30.298;2023-02-16T09:46:35;1029.3;;;3.4;55
57799;BME280;43626;53.866;30.298;2023-02-16T09:51:16;1029.2;;;3.5;55
57799;BME280;43626;53.866;30.298;2023-02-16T09:57:02;1029.2;;;3.5;55
57799;BME280;43626;53.866;30.298;2023-02-16T10:01:18;1029.1;;;3.5;55
57799;BME280;43626;53.866;30.298;2023-02-16T10:06:41;1029.1;;;3.6;54.7
57799;BME280;43626;53.866;30.298;2023-02-16T10:12:00;1029;;;3.6;54.5
57799;BME280;43626;53.866;30.298;2023-02-16T10:17:05;1029;;;3.7;54.3
57799;BME280;43626;53.866;30.298;2023-02-16T10:21:52;1029;;;3.7;54.3
57799;BME280;43626;53.866;30.298;2023-02-16T10:26:41;1028.9;;;3.8;54
57799;BME280;43626;53.866;30.298;2023-02-16T10:32:00;1028.8;;;3.9;54.1
57799;BME280;43626;53.866;30.298;2023-02-16T10:36:26;1028.7;;;4;53.9
57799;BME280;43626;53.866;30.298;2023-02-16T10:41:36;1028.7;;;4.1;53.9
57799;BME280;43626;53.866;30.298;2023-02-16T10:46:16;1028.6;;;4.1;53.7
57799;BME280;43626;53.866;30.298;2023-02-16T10:51:24;1028.6;;;4.1;53.8
57799;BME280;43626;53.866;30.298;2023-02-16T10:56:48;1028.5;;;4;53.7
57799;BME280;43626;53.866;30.298;2023-02-16T11:01:17;1028.4;;;4;53.6
57799;BME280;43626;53.866;30.298;2023-02-16T11:06:33;1028.4;;;4;53.6
57799;BME280;43626;53.866;30.298;2023-02-16T11:11:16;1028.4;;;4;53.2
57799;BME280;43626;53.866;30.298;2023-02-16T11:16:18;1028.3;;;4;53.1
57799;BME280;43626;53.866;30.298;2023-02-16T11:21:15;1028.3;;;4;52.7
57799;BME280;43626;53.866;30.298;2023-02-16T11:27:00;1028.2;;;4;52.7
57799;BME280;43626;53.866;30.298;2023-02-16T11:31:16;1028.2;;;4;52.8
57799;BME280;43626;53.866;30.298;2023-02-16T11:36:36;1028.1;;;4.2;53
57799;BME280;43626;53.866;30.298;2023-02-16T11:41:27;1028.1;;;4.2;52.9
57799;BME280;43626;53.866;30.298;2023-02-16T11:46:49;1028;;;4.3;52.9
57799;BME280;43626;53.866;30.298;2023-02-16T11:52:16;1027.9;;;4.3;52.7
57799;BME280;43626;53.866;30.298;2023-02-16T11:56:23;1027.9;;;4.4;52.5
57799;BME280;43626;53.866;30.298;2023-02-16T12:02:07;1027.9;;;4.3;52.5
57799;BME280;43626;53.866;30.298;2023-02-16T12:06:21;1027.8;;;4.2;52.7
57799;BME280;43626;53.866;30.298;2023-02-16T12:11:49;1027.7;;;4;53.2
57799;BME280;43626;53.866;30.298;2023-02-16T12:16:33;1027.7;;;3.9;53.7
57799;BME280;43626;53.866;30.298;2023-02-16T12:21:52;1027.6;;;3.9;53.5
57799;BME280;43626;53.866;30.298;2023-02-16T12:26:41;1027.6;;;3.7;53.9
57799;BME280;43626;53.866;30.298;2023-02-16T12:32:03;1027.5;;;3.7;54.1
57799;BME280;43626;53.866;30.298;2023-02-16T12:36:44;1027.5;;;3.8;53.9
57799;BME280;43626;53.866;30.298;2023-02-16T12:42:10;1027.4;;;3.7;54
57799;BME280;43626;53.866;30.298;2023-02-16T12:47:03;1027.4;;;3.7;54
57799;BME280;43626;53.866;30.298;2023-02-16T12:52:02;1027.4;;;3.7;53.9
57799;BME280;43626;53.866;30.298;2023-02-16T12:56:49;1027.4;;;3.6;54
57799;BME280;43626;53.866;30.298;2023-02-16T13:01:37;1027.4;;;3.5;54.2
57799;BME280;43626;53.866;30.298;2023-02-16T13:06:47;1027.3;;;3.5;54.1
57799;BME280;43626;53.866;30.298;2023-02-16T13:11:17;1027.3;;;3.5;54.2
57799;BME280;43626;53.866;30.298;2023-02-16T13:16:50;1027.2;;;3.5;54.3
57799;BME280;43626;53.866;30.298;2023-02-16T13:21:34;1027.2;;;3.5;54.4
57799;BME280;43626;53.866;30.298;2023-02-16T13:27:11;1027.1;;;3.6;54.2
57799;BME280;43626;53.866;30.298;2023-02-16T13:31:28;1027.1;;;3.7;54.2
57799;BME280;43626;53.866;30.298;2023-02-16T13:37:00;1027.1;;;3.7;54.1
57799;BME280;43626;53.866;30.298;2023-02-16T13:41:54;1027;;;3.8;54.1
57799;BME280;43626;53.866;30.298;2023-02-16T13:46:26;1027;;;3.9;54.1
57799;BME280;43626;53.866;30.298;2023-02-16T13:51:39;1026.9;;;3.9;54
57799;BME280;43626;53.866;30.298;2023-02-16T13:56:32;1026.9;;;3.8;54.2
57799;BME280;43626;53.866;30.298;2023-02-16T14:02:02;1026.9;;;3.8;54.2
57799;BME280;43626;53.866;30.298;2023-02-16T14:06:32;1026.9;;;3.7;54
57799;BME280;43626;53.866;30.298;2023-02-16T14:12:03;1026.9;;;3.6;54.2
57799;BME280;43626;53.866;30.298;2023-02-16T14:16:27;1026.9;;;3.7;54.4
57799;BME280;43626;53.866;30.298;2023-02-16T14:22:07;1026.8;;;3.7;54.5
57799;BME280;43626;53.866;30.298;2023-02-16T14:26:52;1026.8;;;3.7;54.4
57799;BME280;43626;53.866;30.298;2023-02-16T14:32:03;1026.8;;;3.6;54.4
57799;BME280;43626;53.866;30.298;2023-02-16T14:37:07;1026.8;;;3.5;54.5
57799;BME280;43626;53.866;30.298;2023-02-16T14:41:23;1026.8;;;3.4;54.7
57799;BME280;43626;53.866;30.298;2023-02-16T14:46:33;1026.7;;;3.3;55
57799;BME280;43626;53.866;30.298;2023-02-16T14:51:35;1026.7;;;3.3;55.3
57799;BME280;43626;53.866;30.298;2023-02-16T14:57:00;1026.7;;;3.2;55.5
57799;BME280;43626;53.866;30.298;2023-02-16T15:01:16;1026.7;;;3.2;55.5
57799;BME280;43626;53.866;30.298;2023-02-16T15:06:17;1026.6;;;3.2;55.7
57799;BME280;43626;53.866;30.298;2023-02-16T15:12:02;1026.5;;;3.2;55.8
57799;BME280;43626;53.866;30.298;2023-02-16T15:16:59;1026.5;;;3.2;55.8
57799;BME280;43626;53.866;30.298;2023-02-16T15:21:39;1026.5;;;3.1;56
57799;BME280;43626;53.866;30.298;2023-02-16T15:27:01;1026.5;;;3.1;56.3
57799;BME280;43626;53.866;30.298;2023-02-16T15:32:01;1026.5;;;3;56.4
57799;BME280;43626;53.866;30.298;2023-02-16T15:36:15;1026.5;;;2.9;56.6
57799;BME280;43626;53.866;30.298;2023-02-16T15:41:25;1026.5;;;2.8;56.9
57799;BME280;43626;53.866;30.298;2023-02-16T15:46:21;1026.5;;;2.8;56.9
57799;BME280;43626;53.866;30.298;2023-02-16T15:51:39;1026.6;;;2.9;56.7
57799;BME280;43626;53.866;30.298;2023-02-16T15:56:25;1026.6;;;2.9;56.7
57799;BME280;43626;53.866;30.298;2023-02-16T16:01:39;1026.6;;;2.9;56.6
57799;BME280;43626;53.866;30.298;2023-02-16T16:07:02;1026.6;;;2.9;56.5
57799;BME280;43626;53.866;30.298;2023-02-16T16:12:02;1026.6;;;2.9;56.5
57799;BME280;43626;53.866;30.298;2023-02-16T16:16:39;1026.6;;;2.9;56.4
57799;BME280;43626;53.866;30.298;2023-02-16T16:22:02;1026.6;;;2.9;56.5
57799;BME280;43626;53.866;30.298;2023-02-16T16:26:52;1026.5;;;2.9;56.5
57799;BME280;43626;53.866;30.298;2023-02-16T16:31:33;1026.5;;;2.9;56.5
57799;BME280;43626;53.866;30.298;2023-02-16T16:36:38;1026.5;;;2.9;56.5
57799;BME280;43626;53.866;30.298;2023-02-16T16:41:23;1026.5;;;2.9;56.5
57799;BME280;43626;53.866;30.298;2023-02-16T16:46:39;1026.5;;;2.8;56.8
57799;BME280;43626;53.866;30.298;2023-02-16T16:52:01;1026.4;;;2.8;56.9
57799;BME280;43626;53.866;30.298;2023-02-16T16:56:15;1026.4;;;2.7;57.1
57799;BME280;43626;53.866;30.298;2023-02-16T17:01:59;1026.4;;;2.7;57.1
57799;BME280;43626;53.866;30.298;2023-02-16T17:06:26;1026.4;;;2.7;57.4
57799;BME280;43626;53.866;30.298;2023-02-16T17:11:27;1026.4;;;2.7;57.4
57799;BME280;43626;53.866;30.298;2023-02-16T17:16:40;1026.3;;;2.7;57.3
57799;BME280;43626;53.866;30.298;2023-02-16T17:21:40;1026.3;;;2.6;57.5
57799;BME280;43626;53.866;30.298;2023-02-16T17:26:15;1026.3;;;2.6;57.8
57799;BME280;43626;53.866;30.298;2023-02-16T17:31:15;1026.3;;;2.6;57.7
57799;BME280;43626;53.866;30.298;2023-02-16T17:36:15;1026.2;;;2.7;57.7
57799;BME280;43626;53.866;30.298;2023-02-16T17:41:50;1026.2;;;2.7;57.6
57799;BME280;43626;53.866;30.298;2023-02-16T17:47:01;1026.2;;;2.7;57.6
57799;BME280;43626;53.866;30.298;2023-02-16T17:51:38;1026.2;;;2.8;57.5
57799;BME280;43626;53.866;30.298;2023-02-16T17:57:04;1026.2;;;2.8;57.3
57799;BME280;43626;53.866;30.298;2023-02-16T18:01:46;1026.1;;;2.7;57.4
57799;BME280;43626;53.866;30.298;2023-02-16T18:06:47;1026.1;;;2.7;57.3
57799;BME280;43626;53.866;30.298;2023-02-16T18:11:25;1026.1;;;2.7;57.4
57799;BME280;43626;53.866;30.298;2023-02-16T18:16:50;1026.1;;;2.6;57.3
57799;BME280;43626;53.866;30.298;2023-02-16T18:21:25;1026.1;;;2.4;57.4
57799;BME280;43626;53.866;30.298;2023-02-16T18:27:04;1026.1;;;2.3;57.7
57799;BME280;43626;53.866;30.298;2023-02-16T18:31:49;1026.1;;;2.3;57.9
57799;BME280;43626;53.866;30.298;2023-02-16T18:37:01;1026.1;;;2.3;57.9
57799;BME280;43626;53.866;30.298;2023-02-16T18:41:59;1026;;;2.2;58.1
57799;BME280;43626;53.866;30.298;2023-02-16T18:46:51;1026;;;2.2;58
57799;BME280;43626;53.866;30.298;2023-02-16T18:51:49;1026;;;2.2;58.1
57799;BME280;43626;53.866;30.298;2023-02-16T18:56:27;1025.9;;;2.2;58.1
57799;BME280;43626;53.866;30.298;2023-02-16T19:01:52;1025.9;;;2.2;58.1
57799;BME280;43626;53.866;30.298;2023-02-16T19:06:15;1025.8;;;2.1;58.2
57799;BME280;43626;53.866;30.298;2023-02-16T19:11:41;1025.7;;;2.1;58.3
57799;BME280;43626;53.866;30.298;2023-02-16T19:16:37;1025.7;;;2.1;58.5
57799;BME280;43626;53.866;30.298;2023-02-16T19:22:02;1025.6;;;2.1;58.5
57799;BME280;43626;53.866;30.298;2023-02-16T19:26:39;1025.6;;;2;58.5
57799;BME280;43626;53.866;30.298;2023-02-16T19:31:59;1025.6;;;1.9;59
57799;BME280;43626;53.866;30.298;2023-02-16T19:36:37;1025.6;;;1.8;59.2
57799;BME280;43626;53.866;30.298;2023-02-16T19:41:51;1025.5;;;1.9;59.2
57799;BME280;43626;53.866;30.298;2023-02-16T19:46:26;1025.5;;;1.9;59.1
57799;BME280;43626;53.866;30.298;2023-02-16T19:51:27;1025.4;;;2;59
57799;BME280;43626;53.866;30.298;2023-02-16T19:56:17;1025.4;;;1.9;58.9
57799;BME280;43626;53.866;30.298;2023-02-16T20:01:16;1025.4;;;1.9;59
57799;BME280;43626;53.866;30.298;2023-02-16T20:06:47;1025.4;;;1.9;59
57799;BME280;43626;53.866;30.298;2023-02-16T20:11:42;1025.4;;;1.9;59.1
57799;BME280;43626;53.866;30.298;2023-02-16T20:17:01;1025.4;;;2;59
57799;BME280;43626;53.866;30.298;2023-02-16T20:21:39;1025.4;;;2;58.8
57799;BME280;43626;53.866;30.298;2023-02-16T20:27:01;1025.3;;;2;58.8
57799;BME280;43626;53.866;30.298;2023-02-16T20:31:50;1025.3;;;1.8;59
57799;BME280;43626;53.866;30.298;2023-02-16T20:36:37;1025.3;;;1.8;59
57799;BME280;43626;53.866;30.298;2023-02-16T20:41:38;1025.3;;;1.8;59.1
57799;BME280;43626;53.866;30.298;2023-02-16T20:46:27;1025.3;;;1.9;59
57799;BME280;43626;53.866;30.298;2023-02-16T20:51:37;1025.3;;;1.8;59.1
57799;BME280;43626;53.866;30.298;2023-02-16T20:56:27;1025.3;;;1.7;59.1
57799;BME280;43626;53.866;30.298;2023-02-16T21:01:47;1025.3;;;1.7;59.3
57799;BME280;43626;53.866;30.298;2023-02-16T21:06:41;1025.2;;;1.6;59.4
57799;BME280;43626;53.866;30.298;2023-02-16T21:12:01;1025.2;;;1.6;59.6
57799;BME280;43626;53.866;30.298;2023-02-16T21:16:15;1025.3;;;1.6;59.6
57799;BME280;43626;53.866;30.298;2023-02-16T21:21:50;1025.3;;;1.5;59.6
57799;BME280;43626;53.866;30.298;2023-02-16T21:26:51;1025.3;;;1.5;59.8
57799;BME280;43626;53.866;30.298;2023-02-16T21:31:16;1025.3;;;1.6;59.7
57799;BME280;43626;53.866;30.298;2023-02-16T21:36:35;1025.3;;;1.6;59.7
57799;BME280;43626;53.866;30.298;2023-02-16T21:41:41;1025.2;;;1.6;59.6
57799;BME280;43626;53.866;30.298;2023-02-16T21:47:03;1025.2;;;1.6;59.7
57799;BME280;43626;53.866;30.298;2023-02-16T21:51:28;1025.2;;;1.6;59.6
57799;BME280;43626;53.866;30.298;2023-02-16T21:56:40;1025.1;;;1.6;59.7
57799;BME280;43626;53.866;30.298;2023-02-16T22:01:59;1025.1;;;1.6;59.6
57799;BME280;43626;53.866;30.298;2023-02-16T22:07:01;1025.1;;;1.6;59.6
57799;BME280;43626;53.866;30.298;2023-02-16T22:11:27;1025.1;;;1.5;59.8
57799;BME280;43626;53.866;30.298;2023-02-16T22:17:02;1025;;;1.5;59.9
57799;BME280;43626;53.866;30.298;2023-02-16T22:22:01;1025;;;1.4;60
57799;BME280;43626;53.866;30.298;2023-02-16T22:26:28;1025;;;1.3;60.3
57799;BME280;43626;53.866;30.298;2023-02-16T22:31:38;1025;;;1.3;60.3
57799;BME280;43626;53.866;30.298;2023-02-16T22:36:39;1025;;;1.3;60
57799;BME280;43626;53.866;30.298;2023-02-16T22:41:15;1025;;;1.2;60.2
57799;BME280;43626;53.866;30.298;2023-02-16T22:46:49;1025;;;1.2;60.4
57799;BME280;43626;53.866;30.298;2023-02-16T22:51:39;1025;;;1.1;60.3
57799;BME280;43626;53.866;30.298;2023-02-16T22:56:59;1025.1;;;1.1;60.3
57799;BME280;43626;53.866;30.298;2023-02-16T23:01:39;1025.1;;;1.1;60.4
57799;BME280;43626;53.866;30.298;2023-02-16T23:06:40;1025.1;;;1.1;60.3
57799;BME280;43626;53.866;30.298;2023-02-16T23:11:28;1025;;;1;60.3
57799;BME280;43626;53.866;30.298;2023-02-16T23:16:48;1025;;;1.1;60.2
57799;BME280;43626;53.866;30.298;2023-02-16T23:21:16;1025;;;1.2;60.2
57799;BME280;43626;53.866;30.298;2023-02-16T23:26:37;1025;;;1.2;59.8
57799;BME280;43626;53.866;30.298;2023-02-16T23:31:24;1025;;;1.2;59.7
57799;BME280;43626;53.866;30.298;2023-02-16T23:36:51;1025;;;1.2;59.6
57799;BME280;43626;53.866;30.298;2023-02-16T23:42:01;1025;;;1.3;58.9
57799;BME280;43626;53.866;30.298;2023-02-16T23:46:30;1025;;;1.3;58.9
57799;BME280;43626;53.866;30.298;2023-02-16T23:52:01;1025;;;1.3;58.7
57799;BME280;43626;53.866;30.298;2023-02-16T23:56:38;1025;;;1.4;58.8
